Time,TemperatureF,DewpointF,PressureIn,WindDirection,WindDirectionDegrees,WindSpeedMPH,WindSpeedGustMPH,Humidity,HourlyPrecipIn,Conditions,Clouds,dailyrainin,SoftwareType,DateUTC
2013-05-21 00:03:00,56.2,45.4,29.89,WSW,248,2.0,3.8,67,0.00,,,0.00,WUHU216HW,2013-05-20 22:03:00,
2013-05-21 00:08:00,56.2,45.4,29.90,SW,225,2.0,3.8,67,0.00,,,0.00,WUHU216HW,2013-05-20 22:08:00,
2013-05-21 00:13:00,56.0,45.2,29.90,SW,225,2.5,2.5,67,0.00,,,0.00,WUHU216HW,2013-05-20 22:13:00,
2013-05-21 00:18:00,55.8,45.0,29.90,West,270,1.8,3.4,67,0.00,,,0.00,WUHU216HW,2013-05-20 22:18:00,
2013-05-21 00:23:00,55.8,45.4,29.90,South,180,1.1,3.4,68,0.00,,,0.00,WUHU216HW,2013-05-20 22:23:00,
2013-05-21 00:28:00,55.6,45.3,29.90,SW,225,1.8,2.5,68,0.00,,,0.00,WUHU216HW,2013-05-20 22:28:00,
2013-05-21 00:33:00,55.4,45.1,29.90,SW,225,0.4,2.5,68,0.00,,,0.00,WUHU216HW,2013-05-20 22:33:00,
2013-05-21 00:38:00,55.3,44.9,29.90,SW,225,1.1,1.8,68,0.00,,,0.00,WUHU216HW,2013-05-20 22:38:00,
2013-05-21 00:43:00,55.1,45.1,29.90,West,270,0.0,1.8,69,0.00,,,0.00,WUHU216HW,2013-05-20 22:43:00,
2013-05-21 00:48:00,55.1,45.1,29.90,NW,315,0.0,1.1,69,0.00,,,0.00,WUHU216HW,2013-05-20 22:48:00,
2013-05-21 00:53:00,54.9,44.9,29.90,SSE,158,0.2,0.2,69,0.00,,,0.00,WUHU216HW,2013-05-20 22:53:00,
2013-05-21 00:58:00,54.7,44.7,29.90,South,180,1.1,1.6,69,0.00,,,0.00,WUHU216HW,2013-05-20 22:58:00,
2013-05-21 01:03:00,54.4,44.5,29.90,SW,225,0.9,1.6,69,0.00,,,0.00,WUHU216HW,2013-05-20 23:03:00,
2013-05-21 01:08:00,54.2,44.6,29.90,SW,225,1.1,1.6,70,0.00,,,0.00,WUHU216HW,2013-05-20 23:08:00,
2013-05-21 01:13:00,54.0,44.5,29.90,WSW,248,1.1,1.6,70,0.00,,,0.00,WUHU216HW,2013-05-20 23:13:00,
2013-05-21 01:18:00,53.8,44.3,29.90,WSW,248,0.4,1.8,70,0.00,,,0.00,WUHU216HW,2013-05-20 23:18:00,
2013-05-21 01:23:00,53.6,44.1,29.91,WSW,248,0.0,1.8,70,0.00,,,0.00,WUHU216HW,2013-05-20 23:23:00,
2013-05-21 01:28:00,53.6,44.1,29.91,SW,225,0.4,0.9,70,0.00,,,0.00,WUHU216HW,2013-05-20 23:28:00,
2013-05-21 01:33:00,53.6,44.1,29.91,WSW,248,0.0,0.9,70,0.00,,,0.00,WUHU216HW,2013-05-20 23:33:00,
2013-05-21 01:38:00,53.5,43.9,29.91,SW,225,0.4,0.9,70,0.00,,,0.00,WUHU216HW,2013-05-20 23:38:00,
2013-05-21 01:43:00,53.3,44.1,29.91,WSW,248,0.0,0.9,71,0.00,,,0.00,WUHU216HW,2013-05-20 23:43:00,
2013-05-21 01:48:00,53.3,44.1,29.91,WSW,248,0.0,0.9,71,0.00,,,0.00,WUHU216HW,2013-05-20 23:48:00,
2013-05-21 01:53:00,53.1,44.0,29.91,West,270,0.4,1.1,71,0.00,,,0.00,WUHU216HW,2013-05-20 23:53:00,
2013-05-21 01:58:00,52.9,43.8,29.91,WNW,293,1.3,1.8,71,0.00,,,0.00,WUHU216HW,2013-05-20 23:58:00,
2013-05-21 02:03:00,52.9,43.8,29.91,WNW,293,1.1,2.0,71,0.00,,,0.00,WUHU216HW,2013-05-21 00:03:00,
2013-05-21 02:08:00,52.9,43.8,29.91,SW,225,1.1,2.0,71,0.00,,,0.00,WUHU216HW,2013-05-21 00:08:00,
2013-05-21 02:13:00,52.9,44.2,29.91,West,270,1.1,1.8,72,0.00,,,0.00,WUHU216HW,2013-05-21 00:13:00,
2013-05-21 02:19:00,52.7,43.7,29.91,WSW,248,1.6,1.6,71,0.00,,,0.00,WUHU216HW,2013-05-21 00:19:00,
2013-05-21 02:24:00,52.7,44.0,29.91,West,270,0.9,2.7,72,0.00,,,0.00,WUHU216HW,2013-05-21 00:24:00,
2013-05-21 02:29:00,52.7,43.7,29.91,WNW,293,1.8,2.7,71,0.00,,,0.00,WUHU216HW,2013-05-21 00:29:00,
2013-05-21 02:34:00,52.7,43.7,29.91,WSW,248,1.1,1.8,71,0.00,,,0.00,WUHU216HW,2013-05-21 00:34:00,
2013-05-21 02:39:00,52.6,43.5,29.91,WSW,248,1.8,1.8,71,0.00,,,0.00,WUHU216HW,2013-05-21 00:39:00,
2013-05-21 02:44:00,52.6,43.5,29.91,WSW,248,1.8,2.2,71,0.00,,,0.00,WUHU216HW,2013-05-21 00:44:00,
2013-05-21 02:49:00,52.6,43.8,29.91,WSW,248,1.6,2.2,72,0.00,,,0.00,WUHU216HW,2013-05-21 00:49:00,
2013-05-21 02:54:00,52.4,43.7,29.91,WSW,248,2.2,2.2,72,0.00,,,0.00,WUHU216HW,2013-05-21 00:54:00,
2013-05-21 02:59:00,52.4,43.7,29.91,SW,225,1.6,2.2,72,0.00,,,0.00,WUHU216HW,2013-05-21 00:59:00,
2013-05-21 03:04:00,52.2,43.5,29.91,WSW,248,2.0,2.2,72,0.00,,,0.00,WUHU216HW,2013-05-21 01:04:00,
2013-05-21 03:09:00,52.2,43.5,29.91,WSW,248,1.1,2.2,72,0.00,,,0.00,WUHU216HW,2013-05-21 01:09:00,
2013-05-21 03:14:00,52.2,43.5,29.91,West,270,0.9,2.0,72,0.00,,,0.00,WUHU216HW,2013-05-21 01:14:00,
2013-05-21 03:19:00,52.0,43.7,29.91,WSW,248,0.7,1.1,73,0.00,,,0.00,WUHU216HW,2013-05-21 01:19:00,
2013-05-21 03:24:00,51.8,43.5,29.91,WSW,248,0.0,1.1,73,0.00,,,0.00,WUHU216HW,2013-05-21 01:24:00,
2013-05-21 03:29:00,51.8,43.5,29.91,SW,225,0.2,0.7,73,0.00,,,0.00,WUHU216HW,2013-05-21 01:29:00,
2013-05-21 03:34:00,51.5,43.1,29.91,WSW,248,0.7,0.7,73,0.00,,,0.00,WUHU216HW,2013-05-21 01:34:00,
2013-05-21 03:39:00,51.5,43.1,29.91,SW,225,0.7,0.7,73,0.00,,,0.00,WUHU216HW,2013-05-21 01:39:00,
2013-05-21 03:44:00,51.1,43.1,29.91,South,180,1.8,1.8,74,0.00,,,0.00,WUHU216HW,2013-05-21 01:44:00,
2013-05-21 03:49:00,50.9,42.9,29.91,SW,225,0.7,1.8,74,0.00,,,0.00,WUHU216HW,2013-05-21 01:49:00,
2013-05-21 03:54:00,50.8,42.8,29.90,West,270,0.4,1.8,74,0.00,,,0.00,WUHU216HW,2013-05-21 01:54:00,
2013-05-21 03:59:00,50.8,43.1,29.90,WSW,248,0.2,1.1,75,0.00,,,0.00,WUHU216HW,2013-05-21 01:59:00,
2013-05-21 04:04:00,50.6,42.9,29.90,SW,225,0.7,1.1,75,0.00,,,0.00,WUHU216HW,2013-05-21 02:04:00,
2013-05-21 04:09:00,50.6,42.9,29.90,WSW,248,0.7,1.3,75,0.00,,,0.00,WUHU216HW,2013-05-21 02:09:00,
2013-05-21 04:14:00,50.4,42.8,29.90,SSE,158,0.0,1.3,75,0.00,,,0.00,WUHU216HW,2013-05-21 02:14:00,
2013-05-21 04:19:00,50.4,42.8,29.90,ESE,113,0.2,1.1,75,0.00,,,0.00,WUHU216HW,2013-05-21 02:19:00,
2013-05-21 04:24:00,50.2,42.9,29.90,ESE,113,0.9,0.9,76,0.00,,,0.00,WUHU216HW,2013-05-21 02:24:00,
2013-05-21 04:29:00,50.0,42.8,29.90,ESE,113,0.4,0.9,76,0.00,,,0.00,WUHU216HW,2013-05-21 02:29:00,
2013-05-21 04:34:00,50.0,42.8,29.90,ESE,113,0.4,0.9,76,0.00,,,0.00,WUHU216HW,2013-05-21 02:34:00,
2013-05-21 04:39:00,49.9,42.6,29.90,SE,135,0.4,0.9,76,0.00,,,0.00,WUHU216HW,2013-05-21 02:39:00,
2013-05-21 04:44:00,49.9,42.6,29.90,SSE,158,0.7,0.9,76,0.00,,,0.00,WUHU216HW,2013-05-21 02:44:00,
2013-05-21 04:49:00,49.7,42.8,29.90,SSE,158,0.7,1.3,77,0.00,,,0.00,WUHU216HW,2013-05-21 02:49:00,
2013-05-21 04:54:00,49.7,42.8,29.90,SE,135,1.1,1.3,77,0.00,,,0.00,WUHU216HW,2013-05-21 02:54:00,
2013-05-21 04:59:00,49.5,42.6,29.90,SE,135,1.3,1.3,77,0.00,,,0.00,WUHU216HW,2013-05-21 02:59:00,
2013-05-21 05:04:00,49.5,42.6,29.90,SE,135,0.7,1.3,77,0.00,,,0.00,WUHU216HW,2013-05-21 03:04:00,
2013-05-21 05:09:00,49.3,42.7,29.90,SE,135,0.7,1.3,78,0.00,,,0.00,WUHU216HW,2013-05-21 03:09:00,
2013-05-21 05:14:00,49.3,42.7,29.90,SE,135,0.4,0.9,78,0.00,,,0.00,WUHU216HW,2013-05-21 03:14:00,
2013-05-21 05:19:00,49.5,42.8,29.90,SE,135,0.4,0.7,78,0.00,,,0.00,WUHU216HW,2013-05-21 03:19:00,
2013-05-21 05:24:00,49.5,42.8,29.90,SE,135,0.9,0.9,78,0.00,,,0.00,WUHU216HW,2013-05-21 03:24:00,
2013-05-21 05:29:00,49.7,43.0,29.91,SSE,158,0.4,0.9,78,0.00,,,0.00,WUHU216HW,2013-05-21 03:29:00,
2013-05-21 05:34:00,49.9,43.2,29.90,SSE,158,0.0,0.9,78,0.00,,,0.00,WUHU216HW,2013-05-21 03:34:00,
2013-05-21 05:39:00,49.9,43.2,29.90,SSE,158,0.2,0.7,78,0.00,,,0.00,WUHU216HW,2013-05-21 03:39:00,
2013-05-21 05:44:00,50.0,43.4,29.90,SSE,158,0.0,0.4,78,0.00,,,0.00,WUHU216HW,2013-05-21 03:44:00,
2013-05-21 05:51:00,50.0,43.4,29.90,SSE,158,0.4,0.4,78,0.00,,,0.00,WUHU216HW,2013-05-21 03:51:00,
2013-05-21 05:56:00,50.2,43.9,29.90,SSE,158,0.0,0.4,79,0.00,,,0.00,WUHU216HW,2013-05-21 03:56:00,
2013-05-21 06:01:00,50.4,44.1,29.90,SSE,158,0.0,0.4,79,0.00,,,0.00,WUHU216HW,2013-05-21 04:01:00,
2013-05-21 06:06:00,50.6,44.3,29.90,SSE,158,0.0,0.0,79,0.00,,,0.00,WUHU216HW,2013-05-21 04:06:00,
2013-05-21 06:11:00,50.8,44.5,29.90,SSE,158,0.0,0.0,79,0.00,,,0.00,WUHU216HW,2013-05-21 04:11:00,
2013-05-21 06:16:00,51.1,44.8,29.90,SSE,158,0.4,0.4,79,0.00,,,0.00,WUHU216HW,2013-05-21 04:16:00,
2013-05-21 06:21:00,51.1,45.2,29.90,NNW,338,0.0,0.4,80,0.00,,,0.00,WUHU216HW,2013-05-21 04:21:00,
2013-05-21 06:26:00,51.3,45.0,29.90,NNW,338,0.0,0.4,79,0.00,,,0.00,WUHU216HW,2013-05-21 04:26:00,
2013-05-21 06:31:00,51.3,45.0,29.90,East,90,0.9,0.9,79,0.00,,,0.00,WUHU216HW,2013-05-21 04:31:00,
2013-05-21 06:36:00,51.3,45.0,29.90,ESE,113,0.0,0.9,79,0.00,,,0.00,WUHU216HW,2013-05-21 04:36:00,
2013-05-21 06:41:00,51.5,45.2,29.90,ESE,113,0.0,0.9,79,0.00,,,0.00,WUHU216HW,2013-05-21 04:41:00,
2013-05-21 06:46:00,51.5,45.2,29.90,ESE,113,0.2,0.2,79,0.00,,,0.00,WUHU216HW,2013-05-21 04:46:00,
2013-05-21 06:51:00,51.8,45.5,29.90,ESE,113,0.7,0.9,79,0.00,,,0.00,WUHU216HW,2013-05-21 04:51:00,
2013-05-21 06:56:00,52.2,45.9,29.90,NNE,23,0.0,0.9,79,0.00,,,0.00,WUHU216HW,2013-05-21 04:56:00,
2013-05-21 07:01:00,52.2,45.9,29.90,NNE,23,0.2,1.1,79,0.00,,,0.00,WUHU216HW,2013-05-21 05:01:00,
2013-05-21 07:06:00,52.2,45.5,29.90,North,0,0.0,1.1,78,0.00,,,0.00,WUHU216HW,2013-05-21 05:06:00,
2013-05-21 07:11:00,52.4,45.7,29.90,North,0,0.0,0.7,78,0.00,,,0.00,WUHU216HW,2013-05-21 05:11:00,
2013-05-21 07:16:00,52.7,46.1,29.90,North,0,0.0,0.0,78,0.00,,,0.00,WUHU216HW,2013-05-21 05:16:00,
2013-05-21 07:21:00,52.9,46.3,29.90,North,0,0.4,0.7,78,0.00,,,0.00,WUHU216HW,2013-05-21 05:21:00,
2013-05-21 07:26:00,53.1,46.4,29.90,North,0,0.0,0.7,78,0.00,,,0.00,WUHU216HW,2013-05-21 05:26:00,
2013-05-21 07:31:00,53.1,46.4,29.90,NNW,338,0.2,0.4,78,0.00,,,0.00,WUHU216HW,2013-05-21 05:31:00,
2013-05-21 07:36:00,53.3,46.6,29.90,NE,45,0.0,0.4,78,0.00,,,0.00,WUHU216HW,2013-05-21 05:36:00,
2013-05-21 07:41:00,53.3,46.6,29.90,NE,45,0.0,0.4,78,0.00,,,0.00,WUHU216HW,2013-05-21 05:41:00,
2013-05-21 07:46:00,53.6,47.0,29.90,NE,45,0.2,1.1,78,0.00,,,0.00,WUHU216HW,2013-05-21 05:46:00,
2013-05-21 07:51:00,53.6,47.0,29.90,NNW,338,0.4,1.1,78,0.00,,,0.00,WUHU216HW,2013-05-21 05:51:00,
2013-05-21 07:56:00,53.8,47.5,29.90,NE,45,0.7,2.2,79,0.00,,,0.00,WUHU216HW,2013-05-21 05:56:00,
2013-05-21 08:01:00,53.6,47.0,29.90,NNE,23,0.9,2.2,78,0.00,,,0.00,WUHU216HW,2013-05-21 06:01:00,
2013-05-21 08:06:00,53.8,47.2,29.89,North,0,1.1,1.8,78,0.00,,,0.00,WUHU216HW,2013-05-21 06:06:00,
2013-05-21 08:11:00,54.0,47.7,29.89,ENE,68,0.7,1.8,79,0.00,,,0.00,WUHU216HW,2013-05-21 06:11:00,
2013-05-21 08:16:00,54.2,48.2,29.89,NNE,23,2.5,4.0,80,0.00,,,0.00,WUHU216HW,2013-05-21 06:16:00,
2013-05-21 08:21:00,54.2,47.8,29.89,NNE,23,0.4,4.0,79,0.00,,,0.00,WUHU216HW,2013-05-21 06:21:00,
2013-05-21 08:26:00,54.4,47.6,29.89,NE,45,1.1,3.1,78,0.00,,,0.00,WUHU216HW,2013-05-21 06:26:00,
2013-05-21 08:31:00,54.7,47.6,29.89,ESE,113,0.0,3.4,77,0.00,,,0.00,WUHU216HW,2013-05-21 06:31:00,
2013-05-21 08:36:00,55.1,47.6,29.89,NNE,23,1.8,3.4,76,0.00,,,0.00,WUHU216HW,2013-05-21 06:36:00,
2013-05-21 08:41:00,55.3,47.8,29.89,NNW,338,3.1,3.1,76,0.00,,,0.00,WUHU216HW,2013-05-21 06:41:00,
2013-05-21 08:46:00,55.1,47.6,29.89,NNE,23,2.7,4.7,76,0.00,,,0.00,WUHU216HW,2013-05-21 06:46:00,
2013-05-21 08:51:00,55.3,47.8,29.89,NNE,23,1.8,4.7,76,0.00,,,0.00,WUHU216HW,2013-05-21 06:51:00,
2013-05-21 08:56:00,55.6,48.2,29.89,NNE,23,2.2,4.5,76,0.00,,,0.00,WUHU216HW,2013-05-21 06:56:00,
2013-05-21 09:01:00,55.8,48.0,29.89,North,0,0.7,3.4,75,0.00,,,0.00,WUHU216HW,2013-05-21 07:01:00,
2013-05-21 09:06:00,56.0,47.8,29.89,NNW,338,2.5,3.4,74,0.00,,,0.00,WUHU216HW,2013-05-21 07:06:00,
2013-05-21 09:11:00,56.2,47.6,29.89,NNW,338,1.3,2.7,73,0.00,,,0.00,WUHU216HW,2013-05-21 07:11:00,
2013-05-21 09:16:00,56.5,48.0,29.89,NNW,338,0.4,2.5,73,0.00,,,0.00,WUHU216HW,2013-05-21 07:16:00,
2013-05-21 09:21:00,57.1,47.7,29.89,WNW,293,0.2,2.5,71,0.00,,,0.00,WUHU216HW,2013-05-21 07:21:00,
2013-05-21 09:26:00,57.4,47.4,29.88,North,0,0.9,2.5,69,0.00,,,0.00,WUHU216HW,2013-05-21 07:26:00,
2013-05-21 09:31:00,58.0,47.9,29.88,North,0,0.9,2.5,69,0.00,,,0.00,WUHU216HW,2013-05-21 07:31:00,
2013-05-21 09:36:00,58.3,47.8,29.88,North,0,0.4,2.2,68,0.00,,,0.00,WUHU216HW,2013-05-21 07:36:00,
2013-05-21 09:41:00,58.7,47.7,29.88,WNW,293,2.0,3.1,67,0.00,,,0.00,WUHU216HW,2013-05-21 07:41:00,
2013-05-21 09:46:00,59.0,48.1,29.88,WSW,248,1.1,3.1,67,0.00,,,0.00,WUHU216HW,2013-05-21 07:46:00,
2013-05-21 09:51:00,59.0,47.7,29.88,ENE,68,1.6,3.1,66,0.00,,,0.00,WUHU216HW,2013-05-21 07:51:00,
2013-05-21 09:56:00,59.0,46.8,29.88,NNW,338,1.1,4.5,64,0.00,,,0.00,WUHU216HW,2013-05-21 07:56:00,
2013-05-21 10:01:00,59.6,47.3,29.88,NW,315,3.8,6.3,64,0.00,,,0.00,WUHU216HW,2013-05-21 08:01:00,
2013-05-21 10:06:00,59.4,47.2,29.88,NW,315,2.7,6.3,64,0.00,,,0.00,WUHU216HW,2013-05-21 08:06:00,
2013-05-21 10:11:00,59.2,47.0,29.88,West,270,0.9,4.0,64,0.00,,,0.00,WUHU216HW,2013-05-21 08:11:00,
2013-05-21 10:16:00,59.2,47.4,29.88,West,270,1.1,4.0,65,0.00,,,0.00,WUHU216HW,2013-05-21 08:16:00,
2013-05-21 10:21:00,59.4,47.6,29.88,WSW,248,0.7,1.8,65,0.00,,,0.00,WUHU216HW,2013-05-21 08:21:00,
2013-05-21 10:26:00,60.1,47.9,29.88,NW,315,2.0,4.3,64,0.00,,,0.00,WUHU216HW,2013-05-21 08:26:00,
2013-05-21 10:31:00,60.8,48.6,29.88,WNW,293,2.2,4.7,64,0.00,,,0.00,WUHU216HW,2013-05-21 08:31:00,
2013-05-21 10:36:00,61.2,48.2,29.88,WSW,248,2.2,4.7,62,0.00,,,0.00,WUHU216HW,2013-05-21 08:36:00,
2013-05-21 10:41:00,61.6,48.4,29.88,West,270,2.5,4.3,62,0.00,,,0.00,WUHU216HW,2013-05-21 08:41:00,
2013-05-21 10:46:00,62.3,48.7,29.88,West,270,2.9,5.6,61,0.00,,,0.00,WUHU216HW,2013-05-21 08:46:00,
2013-05-21 10:51:00,63.4,49.2,29.88,NW,315,4.3,5.6,60,0.00,,,0.00,WUHU216HW,2013-05-21 08:51:00,
2013-05-21 10:56:00,63.4,48.2,29.88,WSW,248,3.8,4.5,58,0.00,,,0.00,WUHU216HW,2013-05-21 08:56:00,
2013-05-21 11:01:00,63.5,49.0,29.88,WNW,293,2.7,4.5,59,0.00,,,0.00,WUHU216HW,2013-05-21 09:01:00,
2013-05-21 11:06:00,63.7,48.2,29.88,WNW,293,5.8,6.9,57,0.00,,,0.00,WUHU216HW,2013-05-21 09:06:00,
2013-05-21 11:11:00,63.9,48.2,29.88,West,270,3.1,6.9,57,0.00,,,0.00,WUHU216HW,2013-05-21 09:11:00,
2013-05-21 11:16:00,64.8,49.2,29.88,NW,315,4.7,5.8,57,0.00,,,0.00,WUHU216HW,2013-05-21 09:16:00,
2013-05-21 11:21:00,65.2,49.0,29.88,West,270,4.0,5.1,56,0.00,,,0.00,WUHU216HW,2013-05-21 09:21:00,
2013-05-21 11:26:00,65.0,48.3,29.88,WSW,248,1.8,5.1,55,0.00,,,0.00,WUHU216HW,2013-05-21 09:26:00,
2013-05-21 11:31:00,64.8,47.2,29.88,West,270,5.1,8.7,53,0.00,,,0.00,WUHU216HW,2013-05-21 09:31:00,
2013-05-21 11:36:00,64.6,47.5,29.88,WSW,248,4.3,8.7,54,0.00,,,0.00,WUHU216HW,2013-05-21 09:36:00,
2013-05-21 11:41:00,65.2,48.5,29.88,WSW,248,1.8,6.7,55,0.00,,,0.00,WUHU216HW,2013-05-21 09:41:00,
2013-05-21 11:46:00,65.5,47.9,29.88,WNW,293,3.8,5.6,53,0.00,,,0.00,WUHU216HW,2013-05-21 09:46:00,
2013-05-21 11:51:00,65.5,48.4,29.88,West,270,2.7,5.6,54,0.00,,,0.00,WUHU216HW,2013-05-21 09:51:00,
2013-05-21 11:56:00,65.2,47.1,29.88,NW,315,3.6,5.1,52,0.00,,,0.00,WUHU216HW,2013-05-21 09:56:00,
2013-05-21 12:01:00,65.0,47.3,29.87,NW,315,4.3,7.4,53,0.00,,,0.00,WUHU216HW,2013-05-21 10:01:00,
2013-05-21 12:06:00,64.4,47.4,29.87,West,270,2.0,7.4,54,0.00,,,0.00,WUHU216HW,2013-05-21 10:06:00,
2013-05-21 12:11:00,64.3,47.6,29.87,SW,225,1.6,4.7,55,0.00,,,0.00,WUHU216HW,2013-05-21 10:11:00,
2013-05-21 12:16:00,64.4,48.2,29.87,West,270,1.3,2.5,56,0.00,,,0.00,WUHU216HW,2013-05-21 10:16:00,
2013-05-21 12:21:00,64.8,48.6,29.87,West,270,2.2,2.2,56,0.00,,,0.00,WUHU216HW,2013-05-21 10:21:00,
2013-05-21 12:26:00,64.8,47.7,29.87,NW,315,2.5,4.0,54,0.00,,,0.00,WUHU216HW,2013-05-21 10:26:00,
2013-05-21 12:31:00,64.6,47.5,29.87,West,270,2.5,4.9,54,0.00,,,0.00,WUHU216HW,2013-05-21 10:31:00,
2013-05-21 12:36:00,64.8,48.2,29.87,WNW,293,2.5,4.9,55,0.00,,,0.00,WUHU216HW,2013-05-21 10:36:00,
2013-05-21 12:41:00,64.8,47.7,29.87,WNW,293,4.3,4.3,54,0.00,,,0.00,WUHU216HW,2013-05-21 10:41:00,
2013-05-21 12:46:00,64.6,47.5,29.87,SW,225,1.6,4.3,54,0.00,,,0.00,WUHU216HW,2013-05-21 10:46:00,
2013-05-21 12:51:00,64.4,47.8,29.87,WNW,293,2.7,4.3,55,0.00,,,0.00,WUHU216HW,2013-05-21 10:51:00,
2013-05-21 12:56:00,64.4,47.4,29.86,West,270,2.0,4.0,54,0.00,,,0.00,WUHU216HW,2013-05-21 10:56:00,
2013-05-21 13:01:00,65.3,48.7,29.86,NW,315,5.1,5.1,55,0.00,,,0.00,WUHU216HW,2013-05-21 11:01:00,
2013-05-21 13:06:00,65.9,48.8,29.86,West,270,2.5,5.1,54,0.00,,,0.00,WUHU216HW,2013-05-21 11:06:00,
2013-05-21 13:12:00,66.6,49.0,29.86,West,270,3.4,5.1,53,0.00,,,0.00,WUHU216HW,2013-05-21 11:12:00,
2013-05-21 13:17:00,66.8,48.6,29.86,NW,315,2.5,4.7,52,0.00,,,0.00,WUHU216HW,2013-05-21 11:17:00,
2013-05-21 13:22:00,66.6,48.0,29.86,West,270,2.5,5.4,51,0.00,,,0.00,WUHU216HW,2013-05-21 11:22:00,
2013-05-21 13:27:00,66.4,47.8,29.86,WNW,293,2.0,5.4,51,0.00,,,0.00,WUHU216HW,2013-05-21 11:27:00,
2013-05-21 13:32:00,66.1,47.4,29.86,WNW,293,3.6,4.9,51,0.00,,,0.00,WUHU216HW,2013-05-21 11:32:00,
2013-05-21 13:37:00,65.9,47.3,29.85,NW,315,5.1,5.1,51,0.00,,,0.00,WUHU216HW,2013-05-21 11:37:00,
2013-05-21 13:42:00,66.2,48.2,29.85,West,270,5.4,5.4,52,0.00,,,0.00,WUHU216HW,2013-05-21 11:42:00,
2013-05-21 13:47:00,66.6,49.0,29.85,WSW,248,2.7,5.4,53,0.00,,,0.00,WUHU216HW,2013-05-21 11:47:00,
2013-05-21 13:52:00,67.0,48.3,29.85,SW,225,4.7,5.4,51,0.00,,,0.00,WUHU216HW,2013-05-21 11:52:00,
2013-05-21 13:57:00,67.7,49.0,29.85,West,270,3.1,4.7,51,0.00,,,0.00,WUHU216HW,2013-05-21 11:57:00,
2013-05-21 14:02:00,67.7,47.9,29.84,West,270,2.5,4.7,49,0.00,,,0.00,WUHU216HW,2013-05-21 12:02:00,
2013-05-21 14:07:00,67.3,47.5,29.84,West,270,2.5,4.7,49,0.00,,,0.00,WUHU216HW,2013-05-21 12:07:00,
2013-05-21 14:12:00,67.3,48.2,29.84,SW,225,3.4,6.7,50,0.00,,,0.00,WUHU216HW,2013-05-21 12:12:00,
2013-05-21 14:17:00,67.1,47.3,29.84,West,270,5.8,6.7,49,0.00,,,0.00,WUHU216HW,2013-05-21 12:17:00,
2013-05-21 14:22:00,66.4,47.4,29.84,WSW,248,1.6,5.8,50,0.00,,,0.00,WUHU216HW,2013-05-21 12:22:00,
2013-05-21 14:27:00,66.4,47.8,29.84,WSW,248,1.1,5.4,51,0.00,,,0.00,WUHU216HW,2013-05-21 12:27:00,
2013-05-21 14:32:00,67.7,49.4,29.83,NW,315,2.0,2.5,52,0.00,,,0.00,WUHU216HW,2013-05-21 12:32:00,
2013-05-21 14:37:00,68.0,48.8,29.83,SSW,203,3.8,4.0,50,0.00,,,0.00,WUHU216HW,2013-05-21 12:37:00,
2013-05-21 14:42:00,68.4,48.5,29.83,West,270,6.5,6.5,49,0.00,,,0.00,WUHU216HW,2013-05-21 12:42:00,
2013-05-21 14:47:00,68.4,48.5,29.83,West,270,2.7,6.5,49,0.00,,,0.00,WUHU216HW,2013-05-21 12:47:00,
2013-05-21 14:52:00,68.4,47.9,29.83,WNW,293,6.5,6.7,48,0.00,,,0.00,WUHU216HW,2013-05-21 12:52:00,
2013-05-21 14:57:00,67.3,47.0,29.83,WNW,293,3.1,7.2,48,0.00,,,0.00,WUHU216HW,2013-05-21 12:57:00,
2013-05-21 15:02:00,67.0,46.6,29.83,NW,315,3.4,7.2,48,0.00,,,0.00,WUHU216HW,2013-05-21 13:02:00,
2013-05-21 15:07:00,65.9,46.2,29.82,West,270,2.7,5.1,49,0.00,,,0.00,WUHU216HW,2013-05-21 13:07:00,
2013-05-21 15:12:00,66.1,47.0,29.82,NW,315,2.5,5.1,50,0.00,,,0.00,WUHU216HW,2013-05-21 13:12:00,
2013-05-21 15:17:00,67.0,47.8,29.82,NNW,338,2.9,4.0,50,0.00,,,0.00,WUHU216HW,2013-05-21 13:17:00,
2013-05-21 15:22:00,67.5,47.7,29.82,WNW,293,5.1,9.6,49,0.00,,,0.00,WUHU216HW,2013-05-21 13:22:00,
2013-05-21 15:27:00,66.6,45.7,29.82,West,270,3.1,9.6,47,0.00,,,0.00,WUHU216HW,2013-05-21 13:27:00,
2013-05-21 15:32:00,65.7,44.8,29.82,NW,315,2.2,8.3,47,0.00,,,0.00,WUHU216HW,2013-05-21 13:32:00,
2013-05-21 15:37:00,65.2,44.9,29.82,WNW,293,3.6,5.1,48,0.00,,,0.00,WUHU216HW,2013-05-21 13:37:00,
2013-05-21 15:42:00,65.2,45.6,29.82,NW,315,1.8,3.6,49,0.00,,,0.00,WUHU216HW,2013-05-21 13:42:00,
2013-05-21 15:47:00,64.8,45.7,29.82,WNW,293,2.2,3.6,50,0.00,,,0.00,WUHU216HW,2013-05-21 13:47:00,
2013-05-21 15:52:00,65.2,46.1,29.82,WSW,248,2.5,2.7,50,0.00,,,0.00,WUHU216HW,2013-05-21 13:52:00,
2013-05-21 15:57:00,65.2,46.1,29.82,WSW,248,1.8,2.7,50,0.00,,,0.00,WUHU216HW,2013-05-21 13:57:00,
2013-05-21 16:02:00,65.2,46.5,29.82,South,180,1.3,2.5,51,0.00,,,0.00,WUHU216HW,2013-05-21 14:02:00,
2013-05-21 16:07:00,64.8,46.7,29.82,SW,225,2.9,3.6,52,0.00,,,0.00,WUHU216HW,2013-05-21 14:07:00,
2013-05-21 16:12:00,64.4,46.8,29.82,SSW,203,2.0,3.8,53,0.00,,,0.00,WUHU216HW,2013-05-21 14:12:00,
2013-05-21 16:17:00,63.7,47.2,29.82,SSW,203,2.9,3.8,55,0.00,,,0.00,WUHU216HW,2013-05-21 14:17:00,
2013-05-21 16:22:00,63.4,48.2,29.82,SW,225,3.6,4.7,58,0.00,,,0.00,WUHU216HW,2013-05-21 14:22:00,
2013-05-21 16:27:00,63.2,48.2,29.82,SW,225,2.9,4.7,58,0.00,,,0.00,WUHU216HW,2013-05-21 14:27:00,
2013-05-21 16:32:00,63.0,48.0,29.81,SW,225,1.8,6.9,58,0.00,,,0.00,WUHU216HW,2013-05-21 14:32:00,
2013-05-21 16:37:00,63.0,47.4,29.82,WSW,248,2.5,6.9,57,0.00,,,0.00,WUHU216HW,2013-05-21 14:37:00,
2013-05-21 16:42:00,63.0,47.0,29.82,WNW,293,2.9,3.4,56,0.00,,,0.00,WUHU216HW,2013-05-21 14:42:00,
2013-05-21 16:47:00,62.6,46.6,29.81,SW,225,5.1,5.1,56,0.00,,,0.00,WUHU216HW,2013-05-21 14:47:00,
2013-05-21 16:52:00,62.1,47.6,29.82,WSW,248,4.3,5.1,59,0.00,,,0.00,WUHU216HW,2013-05-21 14:52:00,
2013-05-21 16:57:00,61.4,47.9,29.81,SW,225,3.4,5.1,61,0.00,,,0.00,WUHU216HW,2013-05-21 14:57:00,
2013-05-21 17:02:00,60.8,47.4,29.82,WSW,248,4.9,10.5,61,0.00,,,0.00,WUHU216HW,2013-05-21 15:02:00,
2013-05-21 17:07:00,60.3,47.3,29.82,SW,225,4.5,10.5,62,0.00,,,0.00,WUHU216HW,2013-05-21 15:07:00,
2013-05-21 17:12:00,60.3,47.3,29.82,SW,225,4.0,6.3,62,0.00,,,0.00,WUHU216HW,2013-05-21 15:12:00,
2013-05-21 17:17:00,60.5,47.9,29.82,SSW,203,2.5,6.3,63,0.00,,,0.00,WUHU216HW,2013-05-21 15:17:00,
2013-05-21 17:22:00,60.8,48.6,29.82,WSW,248,1.8,6.3,64,0.00,,,0.00,WUHU216HW,2013-05-21 15:22:00,
2013-05-21 17:27:00,60.8,48.6,29.82,SSW,203,0.9,4.7,64,0.01,,,0.01,WUHU216HW,2013-05-21 15:27:00,
2013-05-21 17:32:00,60.5,48.7,29.81,East,90,1.1,1.8,65,0.01,,,0.01,WUHU216HW,2013-05-21 15:32:00,
2013-05-21 17:37:00,59.4,47.6,29.81,ESE,113,1.8,2.0,65,0.01,,,0.01,WUHU216HW,2013-05-21 15:37:00,
2013-05-21 17:42:00,59.4,48.1,29.80,SW,225,0.7,2.2,66,0.01,,,0.01,WUHU216HW,2013-05-21 15:42:00,
2013-05-21 17:47:00,59.2,48.2,29.80,SE,135,1.6,2.2,67,0.01,,,0.01,WUHU216HW,2013-05-21 15:47:00,
2013-05-21 17:52:00,59.2,48.2,29.80,ESE,113,2.0,2.2,67,0.01,,,0.01,WUHU216HW,2013-05-21 15:52:00,
2013-05-21 17:57:00,59.8,48.8,29.80,WSW,248,1.8,2.2,67,0.01,,,0.01,WUHU216HW,2013-05-21 15:57:00,
2013-05-21 18:02:00,60.3,49.3,29.80,SSW,203,2.2,2.7,67,0.01,,,0.01,WUHU216HW,2013-05-21 16:02:00,
2013-05-21 18:07:00,60.8,49.9,29.80,West,270,1.1,2.7,67,0.01,,,0.01,WUHU216HW,2013-05-21 16:07:00,
2013-05-21 18:12:00,61.6,50.5,29.79,NW,315,1.1,2.2,67,0.01,,,0.01,WUHU216HW,2013-05-21 16:12:00,
2013-05-21 18:17:00,62.3,50.8,29.79,SW,225,0.4,1.3,66,0.01,,,0.01,WUHU216HW,2013-05-21 16:17:00,
2013-05-21 18:22:00,62.6,50.7,29.79,NW,315,1.6,1.6,65,0.01,,,0.01,WUHU216HW,2013-05-21 16:22:00,
2013-05-21 18:27:00,63.0,50.2,29.79,West,270,1.6,2.7,63,0.00,,,0.01,WUHU216HW,2013-05-21 16:27:00,
2013-05-21 18:32:00,63.2,50.3,29.79,West,270,0.9,2.7,63,0.00,,,0.01,WUHU216HW,2013-05-21 16:32:00,
2013-05-21 18:37:00,63.5,50.2,29.78,NNW,338,0.9,2.0,62,0.00,,,0.01,WUHU216HW,2013-05-21 16:37:00,
2013-05-21 18:42:00,63.7,50.4,29.79,WNW,293,1.1,1.3,62,0.00,,,0.01,WUHU216HW,2013-05-21 16:42:00,
2013-05-21 18:47:00,63.9,50.1,29.79,West,270,0.7,1.3,61,0.00,,,0.01,WUHU216HW,2013-05-21 16:47:00,
2013-05-21 18:52:00,64.1,49.9,29.79,WNW,293,1.8,2.0,60,0.00,,,0.01,WUHU216HW,2013-05-21 16:52:00,
2013-05-21 18:57:00,64.1,49.9,29.79,West,270,1.1,2.0,60,0.00,,,0.01,WUHU216HW,2013-05-21 16:57:00,
2013-05-21 19:02:00,63.7,49.1,29.79,WSW,248,0.4,2.0,59,0.00,,,0.01,WUHU216HW,2013-05-21 17:02:00,
2013-05-21 19:07:00,63.9,50.1,29.79,WSW,248,0.4,1.8,61,0.00,,,0.01,WUHU216HW,2013-05-21 17:07:00,
2013-05-21 19:12:00,64.1,49.9,29.79,WSW,248,0.9,1.8,60,0.00,,,0.01,WUHU216HW,2013-05-21 17:12:00,
2013-05-21 19:17:00,64.1,50.3,29.79,WSW,248,0.4,1.8,61,0.00,,,0.01,WUHU216HW,2013-05-21 17:17:00,
2013-05-21 19:22:00,63.7,50.1,29.79,SSW,203,1.1,1.3,61,0.00,,,0.01,WUHU216HW,2013-05-21 17:22:00,
2013-05-21 19:27:00,63.4,50.1,29.79,SSW,203,0.7,1.8,62,0.00,,,0.01,WUHU216HW,2013-05-21 17:27:00,
2013-05-21 19:32:00,63.0,49.8,29.79,SW,225,0.9,1.8,62,0.00,,,0.01,WUHU216HW,2013-05-21 17:32:00,
2013-05-21 19:37:00,62.6,49.4,29.79,SSW,203,1.1,1.3,62,0.00,,,0.01,WUHU216HW,2013-05-21 17:37:00,
2013-05-21 19:42:00,62.3,49.5,29.80,SW,225,1.8,2.0,63,0.00,,,0.01,WUHU216HW,2013-05-21 17:42:00,
2013-05-21 19:47:00,61.6,49.3,29.81,WSW,248,5.1,6.0,64,0.00,,,0.01,WUHU216HW,2013-05-21 17:47:00,
2013-05-21 19:52:00,60.7,48.1,29.81,WSW,248,5.6,6.3,63,0.00,,,0.01,WUHU216HW,2013-05-21 17:52:00,
2013-05-21 19:57:00,59.8,47.2,29.81,WNW,293,3.6,6.7,63,0.00,,,0.01,WUHU216HW,2013-05-21 17:57:00,
2013-05-21 20:02:00,59.4,47.2,29.81,WSW,248,3.1,6.7,64,0.00,,,0.01,WUHU216HW,2013-05-21 18:02:00,
2013-05-21 20:07:00,59.0,46.8,29.81,West,270,3.4,5.4,64,0.00,,,0.01,WUHU216HW,2013-05-21 18:07:00,
2013-05-21 20:12:00,58.7,46.5,29.81,West,270,4.0,5.4,64,0.00,,,0.01,WUHU216HW,2013-05-21 18:12:00,
2013-05-21 20:17:00,58.5,46.4,29.81,West,270,1.8,4.0,64,0.00,,,0.01,WUHU216HW,2013-05-21 18:17:00,
2013-05-21 20:22:00,58.1,46.0,29.81,West,270,1.8,4.0,64,0.00,,,0.01,WUHU216HW,2013-05-21 18:22:00,
2013-05-21 20:27:00,58.0,45.8,29.81,WSW,248,2.7,3.4,64,0.00,,,0.01,WUHU216HW,2013-05-21 18:27:00,
2013-05-21 20:32:00,57.8,45.6,29.81,WSW,248,4.5,4.7,64,0.00,,,0.01,WUHU216HW,2013-05-21 18:32:00,
2013-05-21 20:37:00,57.4,45.3,29.81,WSW,248,3.4,4.7,64,0.00,,,0.01,WUHU216HW,2013-05-21 18:37:00,
2013-05-21 20:42:00,57.2,45.5,29.81,West,270,2.5,5.4,65,0.00,,,0.01,WUHU216HW,2013-05-21 18:42:00,
2013-05-21 20:47:00,56.9,45.6,29.80,South,180,3.6,5.4,66,0.00,,,0.01,WUHU216HW,2013-05-21 18:47:00,
2013-05-21 20:52:00,56.7,45.5,29.80,SW,225,2.5,4.0,66,0.00,,,0.01,WUHU216HW,2013-05-21 18:52:00,
2013-05-21 20:57:00,56.5,45.6,29.80,South,180,2.5,4.0,67,0.00,,,0.01,WUHU216HW,2013-05-21 18:57:00,
2013-05-21 21:02:00,56.5,45.6,29.80,SSE,158,0.9,3.1,67,0.00,,,0.01,WUHU216HW,2013-05-21 19:02:00,
2013-05-21 21:07:00,56.3,46.3,29.80,SSE,158,1.3,3.1,69,0.00,,,0.01,WUHU216HW,2013-05-21 19:07:00,
2013-05-21 21:12:00,56.3,46.3,29.79,SE,135,0.9,2.0,69,0.00,,,0.01,WUHU216HW,2013-05-21 19:12:00,
2013-05-21 21:17:00,56.3,46.3,29.79,ESE,113,0.4,2.5,69,0.00,,,0.01,WUHU216HW,2013-05-21 19:17:00,
2013-05-21 21:22:00,56.2,46.2,29.79,SSW,203,0.7,2.5,69,0.00,,,0.01,WUHU216HW,2013-05-21 19:22:00,
2013-05-21 21:27:00,56.2,46.5,29.80,SW,225,0.2,1.6,70,0.00,,,0.01,WUHU216HW,2013-05-21 19:27:00,
2013-05-21 21:32:00,56.0,46.4,29.80,West,270,0.2,2.5,70,0.00,,,0.01,WUHU216HW,2013-05-21 19:32:00,
2013-05-21 21:37:00,55.8,46.5,29.80,NNW,338,0.7,2.5,71,0.00,,,0.01,WUHU216HW,2013-05-21 19:37:00,
2013-05-21 21:42:00,55.6,46.5,29.80,South,180,0.0,2.2,71,0.00,,,0.01,WUHU216HW,2013-05-21 19:42:00,
2013-05-21 21:47:00,55.1,46.6,29.81,SE,135,0.4,2.2,73,0.00,,,0.01,WUHU216HW,2013-05-21 19:47:00,
2013-05-21 21:52:00,54.7,46.3,29.81,NNE,23,0.4,1.8,73,0.00,,,0.01,WUHU216HW,2013-05-21 19:52:00,
2013-05-21 21:57:00,54.5,46.5,29.80,NE,45,0.2,1.1,74,0.00,,,0.01,WUHU216HW,2013-05-21 19:57:00,
2013-05-21 22:02:00,54.4,46.3,29.81,SE,135,0.0,0.4,74,0.00,,,0.01,WUHU216HW,2013-05-21 20:02:00,
2013-05-21 22:07:00,54.2,46.1,29.81,SW,225,0.0,0.9,74,0.00,,,0.01,WUHU216HW,2013-05-21 20:07:00,
2013-05-21 22:12:00,54.0,45.9,29.81,ESE,113,0.9,1.3,74,0.00,,,0.01,WUHU216HW,2013-05-21 20:12:00,
2013-05-21 22:17:00,53.8,45.7,29.81,NW,315,0.4,1.3,74,0.00,,,0.01,WUHU216HW,2013-05-21 20:17:00,
2013-05-21 22:22:00,53.6,45.9,29.81,NE,45,0.0,1.1,75,0.00,,,0.01,WUHU216HW,2013-05-21 20:22:00,
2013-05-21 22:27:00,53.5,45.7,29.81,SE,135,0.0,0.9,75,0.00,,,0.01,WUHU216HW,2013-05-21 20:27:00,
2013-05-21 22:32:00,53.3,45.2,29.81,SE,135,0.4,0.9,74,0.00,,,0.01,WUHU216HW,2013-05-21 20:32:00,
2013-05-21 22:37:00,53.1,45.0,29.80,SE,135,0.0,0.7,74,0.00,,,0.01,WUHU216HW,2013-05-21 20:37:00,
2013-05-21 22:42:00,52.9,44.8,29.81,SW,225,1.1,1.1,74,0.00,,,0.01,WUHU216HW,2013-05-21 20:42:00,
2013-05-21 22:47:00,52.6,44.2,29.81,SW,225,0.9,1.1,73,0.00,,,0.01,WUHU216HW,2013-05-21 20:47:00,
2013-05-21 22:52:00,52.2,43.8,29.80,SSE,158,0.0,1.1,73,0.00,,,0.01,WUHU216HW,2013-05-21 20:52:00,
2013-05-21 22:57:00,52.2,44.2,29.80,ESE,113,2.7,2.7,74,0.00,,,0.01,WUHU216HW,2013-05-21 20:57:00,
2013-05-21 23:02:00,51.8,43.8,29.80,SW,225,2.5,4.0,74,0.00,,,0.01,WUHU216HW,2013-05-21 21:02:00,
2013-05-21 23:07:00,52.0,44.0,29.80,SW,225,1.6,4.0,74,0.00,,,0.01,WUHU216HW,2013-05-21 21:07:00,
2013-05-21 23:12:00,52.2,44.2,29.80,SE,135,3.1,6.3,74,0.00,,,0.01,WUHU216HW,2013-05-21 21:12:00,
2013-05-21 23:17:00,52.6,44.6,29.80,SSW,203,4.5,6.3,74,0.00,,,0.01,WUHU216HW,2013-05-21 21:17:00,
2013-05-21 23:22:00,52.7,44.7,29.80,SW,225,2.7,6.7,74,0.00,,,0.01,WUHU216HW,2013-05-21 21:22:00,
2013-05-21 23:27:00,52.9,44.6,29.80,South,180,4.0,6.7,73,0.00,,,0.01,WUHU216HW,2013-05-21 21:27:00,
2013-05-21 23:32:00,52.9,44.6,29.80,WSW,248,2.2,5.6,73,0.00,,,0.01,WUHU216HW,2013-05-21 21:32:00,
2013-05-21 23:37:00,53.1,44.3,29.80,WSW,248,0.9,4.5,72,0.00,,,0.01,WUHU216HW,2013-05-21 21:37:00,
2013-05-21 23:42:00,53.3,44.5,29.80,WSW,248,2.2,4.0,72,0.00,,,0.01,WUHU216HW,2013-05-21 21:42:00,
2013-05-21 23:47:00,52.9,44.2,29.79,North,0,1.1,4.0,72,0.00,,,0.01,WUHU216HW,2013-05-21 21:47:00,
2013-05-21 23:52:00,52.4,44.0,29.79,North,0,0.0,2.2,73,0.00,,,0.01,WUHU216HW,2013-05-21 21:52:00,
2013-05-21 23:57:00,52.2,44.2,29.79,ESE,113,0.7,1.1,74,0.00,,,0.01,WUHU216HW,2013-05-21 21:57:00,